sensor_id;sensor_type;location;lat;lon;timestamp;P1;durP1;ratioP1;P2;durP2;ratioP2
19560;SDS011;9927;47.792;10.616;2023-12-22T04:01:53;3.13;;;3.00;;
19560;SDS011;9927;47.792;10.616;2023-12-22T04:04:22;3.00;;;2.80;;
19560;SDS011;9927;47.792;10.616;2023-12-22T04:06:50;2.93;;;2.73;;
19560;SDS011;9927;47.792;10.616;2023-12-22T04:09:17;2.83;;;2.73;;
19560;SDS011;9927;47.792;10.616;2023-12-22T04:11:44;2.70;;;2.70;;
19560;SDS011;9927;47.792;10.616;2023-12-22T04:14:12;2.87;;;2.77;;
19560;SDS011;9927;47.792;10.616;2023-12-22T04:16:39;2.60;;;2.50;;
19560;SDS011;9927;47.792;10.616;2023-12-22T04:19:06;2.93;;;2.83;;
19560;SDS011;9927;47.792;10.616;2023-12-22T04:21:38;3.17;;;2.80;;
19560;SDS011;9927;47.792;10.616;2023-12-22T04:24:05;2.80;;;2.70;;
19560;SDS011;9927;47.792;10.616;2023-12-22T04:26:32;2.70;;;2.60;;
19560;SDS011;9927;47.792;10.616;2023-12-22T04:29:00;2.97;;;2.70;;
19560;SDS011;9927;47.792;10.616;2023-12-22T04:31:27;3.03;;;2.83;;
19560;SDS011;9927;47.792;10.616;2023-12-22T04:33:54;2.87;;;2.77;;
19560;SDS011;9927;47.792;10.616;2023-12-22T04:36:22;2.77;;;2.67;;
19560;SDS011;9927;47.792;10.616;2023-12-22T04:38:50;3.00;;;2.90;;
19560;SDS011;9927;47.792;10.616;2023-12-22T04:41:17;3.00;;;2.80;;
19560;SDS011;9927;47.792;10.616;2023-12-22T04:43:44;3.40;;;3.10;;
19560;SDS011;9927;47.792;10.616;2023-12-22T04:46:11;3.17;;;3.00;;
19560;SDS011;9927;47.792;10.616;2023-12-22T04:48:39;3.17;;;2.97;;
19560;SDS011;9927;47.792;10.616;2023-12-22T04:51:06;2.90;;;2.80;;
19560;SDS011;9927;47.792;10.616;2023-12-22T04:53:33;3.20;;;2.90;;
19560;SDS011;9927;47.792;10.616;2023-12-22T04:56:01;3.13;;;3.00;;
19560;SDS011;9927;47.792;10.616;2023-12-22T04:58:28;3.07;;;2.97;;
19560;SDS011;9927;47.792;10.616;2023-12-22T05:00:55;2.90;;;2.80;;
19560;SDS011;9927;47.792;10.616;2023-12-22T05:03:22;3.13;;;2.97;;
19560;SDS011;9927;47.792;10.616;2023-12-22T05:05:50;3.40;;;3.10;;
19560;SDS011;9927;47.792;10.616;2023-12-22T05:08:17;3.00;;;2.90;;
19560;SDS011;9927;47.792;10.616;2023-12-22T05:10:44;3.43;;;3.23;;
19560;SDS011;9927;47.792;10.616;2023-12-22T05:13:12;3.37;;;3.07;;
19560;SDS011;9927;47.792;10.616;2023-12-22T05:15:39;3.30;;;3.00;;
19560;SDS011;9927;47.792;10.616;2023-12-22T05:18:06;3.40;;;3.20;;
19560;SDS011;9927;47.792;10.616;2023-12-22T05:20:35;3.00;;;2.90;;
19560;SDS011;9927;47.792;10.616;2023-12-22T05:23:02;3.40;;;3.10;;
19560;SDS011;9927;47.792;10.616;2023-12-22T05:25:30;3.10;;;2.90;;
19560;SDS011;9927;47.792;10.616;2023-12-22T05:27:57;3.40;;;3.20;;
19560;SDS011;9927;47.792;10.616;2023-12-22T05:30:24;3.83;;;3.13;;
19560;SDS011;9927;47.792;10.616;2023-12-22T05:32:52;2.90;;;2.80;;
19560;SDS011;9927;47.792;10.616;2023-12-22T05:35:21;3.37;;;3.00;;
19560;SDS011;9927;47.792;10.616;2023-12-22T05:37:48;3.30;;;3.00;;
19560;SDS011;9927;47.792;10.616;2023-12-22T05:40:16;4.20;;;3.20;;
19560;SDS011;9927;47.792;10.616;2023-12-22T05:42:43;3.07;;;2.90;;
19560;SDS011;9927;47.792;10.616;2023-12-22T05:45:11;3.40;;;3.20;;
19560;SDS011;9927;47.792;10.616;2023-12-22T05:47:38;3.37;;;3.17;;
19560;SDS011;9927;47.792;10.616;2023-12-22T05:50:06;3.30;;;3.10;;
19560;SDS011;9927;47.792;10.616;2023-12-22T05:52:34;3.63;;;3.20;;
19560;SDS011;9927;47.792;10.616;2023-12-22T05:55:02;4.93;;;3.27;;
19560;SDS011;9927;47.792;10.616;2023-12-22T05:57:29;3.57;;;3.10;;
19560;SDS011;9927;47.792;10.616;2023-12-22T05:59:56;3.30;;;3.10;;
19560;SDS011;9927;47.792;10.616;2023-12-22T06:02:25;5.37;;;3.47;;
19560;SDS011;9927;47.792;10.616;2023-12-22T06:04:52;3.43;;;3.23;;
19560;SDS011;9927;47.792;10.616;2023-12-22T06:07:20;3.87;;;3.30;;
19560;SDS011;9927;47.792;10.616;2023-12-22T06:09:47;4.00;;;3.30;;
19560;SDS011;9927;47.792;10.616;2023-12-22T06:12:14;3.30;;;3.00;;
19560;SDS011;9927;47.792;10.616;2023-12-22T06:14:42;3.77;;;3.43;;
19560;SDS011;9927;47.792;10.616;2023-12-22T06:17:09;3.57;;;3.30;;
19560;SDS011;9927;47.792;10.616;2023-12-22T06:19:36;3.87;;;3.23;;
19560;SDS011;9927;47.792;10.616;2023-12-22T06:22:04;3.73;;;3.30;;
19560;SDS011;9927;47.792;10.616;2023-12-22T06:24:34;3.60;;;3.37;;
19560;SDS011;9927;47.792;10.616;2023-12-22T06:27:02;3.73;;;3.20;;
19560;SDS011;9927;47.792;10.616;2023-12-22T06:29:30;3.37;;;3.10;;
19560;SDS011;9927;47.792;10.616;2023-12-22T06:31:58;3.50;;;3.20;;
19560;SDS011;9927;47.792;10.616;2023-12-22T06:34:25;3.63;;;3.20;;
19560;SDS011;9927;47.792;10.616;2023-12-22T06:36:53;4.87;;;3.10;;
19560;SDS011;9927;47.792;10.616;2023-12-22T06:39:20;3.27;;;3.17;;
19560;SDS011;9927;47.792;10.616;2023-12-22T06:41:47;3.23;;;2.97;;
19560;SDS011;9927;47.792;10.616;2023-12-22T06:44:15;3.00;;;2.90;;
19560;SDS011;9927;47.792;10.616;2023-12-22T06:46:42;3.63;;;3.30;;
19560;SDS011;9927;47.792;10.616;2023-12-22T06:49:09;3.30;;;3.10;;
19560;SDS011;9927;47.792;10.616;2023-12-22T06:51:37;4.63;;;3.10;;
19560;SDS011;9927;47.792;10.616;2023-12-22T06:54:04;3.87;;;3.57;;
19560;SDS011;9927;47.792;10.616;2023-12-22T06:56:32;3.30;;;3.10;;
19560;SDS011;9927;47.792;10.616;2023-12-22T06:59:01;3.23;;;3.03;;
19560;SDS011;9927;47.792;10.616;2023-12-22T07:01:30;3.30;;;3.10;;
19560;SDS011;9927;47.792;10.616;2023-12-22T07:03:58;4.80;;;3.50;;
19560;SDS011;9927;47.792;10.616;2023-12-22T07:06:30;5.17;;;3.47;;
19560;SDS011;9927;47.792;10.616;2023-12-22T07:11:47;3.80;;;3.03;;
19560;SDS011;9927;47.792;10.616;2023-12-22T07:14:23;4.80;;;3.50;;
19560;SDS011;9927;47.792;10.616;2023-12-22T07:16:50;3.50;;;3.20;;
19560;SDS011;9927;47.792;10.616;2023-12-22T07:19:17;3.50;;;3.20;;
19560;SDS011;9927;47.792;10.616;2023-12-22T07:21:45;4.83;;;3.20;;
19560;SDS011;9927;47.792;10.616;2023-12-22T07:24:13;3.67;;;3.10;;
19560;SDS011;9927;47.792;10.616;2023-12-22T07:26:42;3.63;;;3.33;;
19560;SDS011;9927;47.792;10.616;2023-12-22T07:29:11;4.53;;;3.40;;
19560;SDS011;9927;47.792;10.616;2023-12-22T07:31:39;3.70;;;3.40;;
19560;SDS011;9927;47.792;10.616;2023-12-22T07:34:06;3.33;;;3.10;;
19560;SDS011;9927;47.792;10.616;2023-12-22T07:36:35;3.20;;;3.00;;
19560;SDS011;9927;47.792;10.616;2023-12-22T07:39:13;3.30;;;3.10;;
19560;SDS011;9927;47.792;10.616;2023-12-22T07:41:43;3.40;;;3.20;;
19560;SDS011;9927;47.792;10.616;2023-12-22T07:44:11;3.97;;;3.30;;
19560;SDS011;9927;47.792;10.616;2023-12-22T07:46:39;3.20;;;3.00;;
19560;SDS011;9927;47.792;10.616;2023-12-22T07:49:09;3.30;;;3.10;;
19560;SDS011;9927;47.792;10.616;2023-12-22T07:51:37;3.27;;;2.90;;
19560;SDS011;9927;47.792;10.616;2023-12-22T07:54:07;3.37;;;3.13;;
19560;SDS011;9927;47.792;10.616;2023-12-22T07:56:35;3.37;;;3.03;;
19560;SDS011;9927;47.792;10.616;2023-12-22T07:59:02;3.10;;;2.90;;
19560;SDS011;9927;47.792;10.616;2023-12-22T08:01:48;2.90;;;2.80;;
19560;SDS011;9927;47.792;10.616;2023-12-22T08:04:15;2.70;;;2.60;;
19560;SDS011;9927;47.792;10.616;2023-12-22T08:06:43;2.80;;;2.70;;
19560;SDS011;9927;47.792;10.616;2023-12-22T08:09:10;2.97;;;2.80;;
19560;SDS011;9927;47.792;10.616;2023-12-22T08:11:37;2.90;;;2.90;;
19560;SDS011;9927;47.792;10.616;2023-12-22T08:14:05;4.07;;;3.20;;
19560;SDS011;9927;47.792;10.616;2023-12-22T08:16:32;3.40;;;3.10;;
19560;SDS011;9927;47.792;10.616;2023-12-22T08:19:00;3.70;;;3.40;;
19560;SDS011;9927;47.792;10.616;2023-12-22T08:21:27;3.13;;;2.97;;
19560;SDS011;9927;47.792;10.616;2023-12-22T08:24:09;4.00;;;3.10;;
19560;SDS011;9927;47.792;10.616;2023-12-22T08:26:47;3.57;;;3.20;;
19560;SDS011;9927;47.792;10.616;2023-12-22T08:29:14;3.70;;;3.40;;
19560;SDS011;9927;47.792;10.616;2023-12-22T08:31:43;5.03;;;3.43;;
19560;SDS011;9927;47.792;10.616;2023-12-22T08:34:11;4.93;;;3.30;;
19560;SDS011;9927;47.792;10.616;2023-12-22T08:36:38;4.10;;;3.80;;
19560;SDS011;9927;47.792;10.616;2023-12-22T08:39:06;4.60;;;3.33;;
19560;SDS011;9927;47.792;10.616;2023-12-22T08:41:35;7.83;;;4.03;;
19560;SDS011;9927;47.792;10.616;2023-12-22T08:44:05;5.33;;;3.67;;
19560;SDS011;9927;47.792;10.616;2023-12-22T08:46:33;4.33;;;3.60;;
19560;SDS011;9927;47.792;10.616;2023-12-22T08:49:01;4.33;;;3.40;;
19560;SDS011;9927;47.792;10.616;2023-12-22T08:51:30;4.53;;;3.63;;
19560;SDS011;9927;47.792;10.616;2023-12-22T08:53:57;6.37;;;3.80;;
19560;SDS011;9927;47.792;10.616;2023-12-22T08:56:25;4.03;;;3.60;;
19560;SDS011;9927;47.792;10.616;2023-12-22T08:58:53;3.90;;;3.57;;
19560;SDS011;9927;47.792;10.616;2023-12-22T09:01:22;4.70;;;3.70;;
19560;SDS011;9927;47.792;10.616;2023-12-22T09:03:50;5.00;;;3.53;;
19560;SDS011;9927;47.792;10.616;2023-12-22T09:06:18;4.00;;;3.60;;
19560;SDS011;9927;47.792;10.616;2023-12-22T09:08:47;5.10;;;3.47;;
19560;SDS011;9927;47.792;10.616;2023-12-22T09:11:17;4.20;;;3.50;;
19560;SDS011;9927;47.792;10.616;2023-12-22T09:13:46;3.50;;;3.20;;
19560;SDS011;9927;47.792;10.616;2023-12-22T09:16:13;3.10;;;2.90;;
19560;SDS011;9927;47.792;10.616;2023-12-22T09:18:46;8.13;;;3.83;;
19560;SDS011;9927;47.792;10.616;2023-12-22T09:21:14;4.30;;;3.30;;
19560;SDS011;9927;47.792;10.616;2023-12-22T09:23:41;4.47;;;3.40;;
19560;SDS011;9927;47.792;10.616;2023-12-22T09:26:12;4.10;;;3.40;;
19560;SDS011;9927;47.792;10.616;2023-12-22T09:28:40;7.00;;;3.43;;
19560;SDS011;9927;47.792;10.616;2023-12-22T09:31:08;3.70;;;3.37;;
19560;SDS011;9927;47.792;10.616;2023-12-22T09:33:36;5.67;;;3.57;;
19560;SDS011;9927;47.792;10.616;2023-12-22T09:36:04;3.80;;;3.43;;
19560;SDS011;9927;47.792;10.616;2023-12-22T09:38:31;5.63;;;3.97;;
19560;SDS011;9927;47.792;10.616;2023-12-22T09:40:58;3.47;;;3.27;;
19560;SDS011;9927;47.792;10.616;2023-12-22T09:43:27;6.27;;;3.83;;
19560;SDS011;9927;47.792;10.616;2023-12-22T09:45:55;3.47;;;3.13;;
19560;SDS011;9927;47.792;10.616;2023-12-22T09:48:24;3.60;;;3.30;;
19560;SDS011;9927;47.792;10.616;2023-12-22T09:50:56;6.37;;;3.50;;
19560;SDS011;9927;47.792;10.616;2023-12-22T09:53:24;5.67;;;3.50;;
19560;SDS011;9927;47.792;10.616;2023-12-22T09:55:53;5.07;;;3.47;;
19560;SDS011;9927;47.792;10.616;2023-12-22T09:58:21;4.10;;;3.30;;
19560;SDS011;9927;47.792;10.616;2023-12-22T10:00:49;4.83;;;3.40;;
19560;SDS011;9927;47.792;10.616;2023-12-22T10:03:19;4.67;;;3.30;;
19560;SDS011;9927;47.792;10.616;2023-12-22T10:05:48;6.93;;;3.53;;
19560;SDS011;9927;47.792;10.616;2023-12-22T10:08:15;9.97;;;3.60;;
19560;SDS011;9927;47.792;10.616;2023-12-22T10:10:45;5.63;;;3.50;;
19560;SDS011;9927;47.792;10.616;2023-12-22T10:13:14;3.30;;;3.10;;
19560;SDS011;9927;47.792;10.616;2023-12-22T10:15:42;5.00;;;3.77;;
19560;SDS011;9927;47.792;10.616;2023-12-22T10:18:11;5.20;;;3.20;;
19560;SDS011;9927;47.792;10.616;2023-12-22T10:20:39;6.20;;;3.63;;
19560;SDS011;9927;47.792;10.616;2023-12-22T10:23:07;4.83;;;3.20;;
19560;SDS011;9927;47.792;10.616;2023-12-22T10:25:34;6.97;;;3.30;;
19560;SDS011;9927;47.792;10.616;2023-12-22T10:28:02;3.93;;;3.50;;
19560;SDS011;9927;47.792;10.616;2023-12-22T10:30:29;3.70;;;3.30;;
19560;SDS011;9927;47.792;10.616;2023-12-22T10:32:58;4.10;;;3.70;;
19560;SDS011;9927;47.792;10.616;2023-12-22T10:35:26;3.30;;;3.10;;
19560;SDS011;9927;47.792;10.616;2023-12-22T10:37:54;5.93;;;3.40;;
19560;SDS011;9927;47.792;10.616;2023-12-22T10:40:25;5.77;;;3.53;;
19560;SDS011;9927;47.792;10.616;2023-12-22T10:42:52;5.53;;;3.43;;
19560;SDS011;9927;47.792;10.616;2023-12-22T10:45:20;4.50;;;3.53;;
19560;SDS011;9927;47.792;10.616;2023-12-22T10:47:50;6.33;;;3.50;;
19560;SDS011;9927;47.792;10.616;2023-12-22T10:50:19;5.23;;;3.30;;
19560;SDS011;9927;47.792;10.616;2023-12-22T10:52:50;5.33;;;3.40;;
19560;SDS011;9927;47.792;10.616;2023-12-22T10:55:18;4.63;;;3.43;;
19560;SDS011;9927;47.792;10.616;2023-12-22T10:57:46;5.40;;;3.53;;
19560;SDS011;9927;47.792;10.616;2023-12-22T11:00:17;7.40;;;3.60;;
19560;SDS011;9927;47.792;10.616;2023-12-22T11:02:47;6.00;;;3.50;;
19560;SDS011;9927;47.792;10.616;2023-12-22T11:05:15;4.43;;;3.60;;
19560;SDS011;9927;47.792;10.616;2023-12-22T11:07:48;9.37;;;4.00;;
19560;SDS011;9927;47.792;10.616;2023-12-22T11:10:20;6.90;;;3.77;;
19560;SDS011;9927;47.792;10.616;2023-12-22T11:12:48;4.73;;;3.70;;
19560;SDS011;9927;47.792;10.616;2023-12-22T11:15:18;5.30;;;3.57;;
19560;SDS011;9927;47.792;10.616;2023-12-22T11:17:47;4.73;;;3.80;;
19560;SDS011;9927;47.792;10.616;2023-12-22T11:20:16;8.83;;;3.90;;
19560;SDS011;9927;47.792;10.616;2023-12-22T11:22:45;9.23;;;3.90;;
19560;SDS011;9927;47.792;10.616;2023-12-22T11:25:13;7.73;;;3.70;;
19560;SDS011;9927;47.792;10.616;2023-12-22T11:27:43;8.87;;;3.70;;
19560;SDS011;9927;47.792;10.616;2023-12-22T11:30:14;8.57;;;4.50;;
19560;SDS011;9927;47.792;10.616;2023-12-22T11:32:42;7.87;;;3.97;;
19560;SDS011;9927;47.792;10.616;2023-12-22T11:35:11;5.70;;;3.90;;
19560;SDS011;9927;47.792;10.616;2023-12-22T11:37:38;6.80;;;3.60;;
19560;SDS011;9927;47.792;10.616;2023-12-22T11:40:06;4.40;;;3.90;;
19560;SDS011;9927;47.792;10.616;2023-12-22T11:42:35;4.87;;;3.70;;
19560;SDS011;9927;47.792;10.616;2023-12-22T11:45:11;5.63;;;3.60;;
19560;SDS011;9927;47.792;10.616;2023-12-22T11:47:40;6.40;;;3.60;;
19560;SDS011;9927;47.792;10.616;2023-12-22T11:50:10;8.40;;;4.80;;
19560;SDS011;9927;47.792;10.616;2023-12-22T11:52:38;5.67;;;3.90;;
19560;SDS011;9927;47.792;10.616;2023-12-22T11:55:06;5.97;;;4.43;;
19560;SDS011;9927;47.792;10.616;2023-12-22T11:57:35;4.00;;;3.60;;
19560;SDS011;9927;47.792;10.616;2023-12-22T12:00:05;4.93;;;3.80;;
19560;SDS011;9927;47.792;10.616;2023-12-22T12:02:35;5.30;;;3.83;;
19560;SDS011;9927;47.792;10.616;2023-12-22T12:05:03;7.30;;;3.80;;
19560;SDS011;9927;47.792;10.616;2023-12-22T12:07:40;4.50;;;3.43;;
19560;SDS011;9927;47.792;10.616;2023-12-22T12:13:11;4.17;;;3.23;;
19560;SDS011;9927;47.792;10.616;2023-12-22T12:15:42;6.37;;;3.50;;
19560;SDS011;9927;47.792;10.616;2023-12-22T12:18:09;5.47;;;3.83;;
19560;SDS011;9927;47.792;10.616;2023-12-22T12:20:38;4.30;;;3.50;;
19560;SDS011;9927;47.792;10.616;2023-12-22T12:23:06;4.27;;;3.60;;
19560;SDS011;9927;47.792;10.616;2023-12-22T12:25:34;4.83;;;3.67;;
19560;SDS011;9927;47.792;10.616;2023-12-22T12:28:03;3.70;;;3.40;;
19560;SDS011;9927;47.792;10.616;2023-12-22T12:30:33;3.83;;;3.50;;
19560;SDS011;9927;47.792;10.616;2023-12-22T12:33:11;4.17;;;3.77;;
19560;SDS011;9927;47.792;10.616;2023-12-22T12:35:40;4.20;;;3.40;;
19560;SDS011;9927;47.792;10.616;2023-12-22T12:38:15;3.90;;;3.60;;
19560;SDS011;9927;47.792;10.616;2023-12-22T12:40:46;4.30;;;3.80;;
19560;SDS011;9927;47.792;10.616;2023-12-22T12:43:17;3.60;;;3.30;;
19560;SDS011;9927;47.792;10.616;2023-12-22T12:45:45;3.40;;;3.17;;
19560;SDS011;9927;47.792;10.616;2023-12-22T12:48:15;3.50;;;3.30;;
19560;SDS011;9927;47.792;10.616;2023-12-22T12:50:45;3.80;;;3.50;;
19560;SDS011;9927;47.792;10.616;2023-12-22T12:53:12;5.00;;;3.30;;
19560;SDS011;9927;47.792;10.616;2023-12-22T12:55:40;3.37;;;3.17;;
19560;SDS011;9927;47.792;10.616;2023-12-22T12:58:07;3.30;;;3.10;;
19560;SDS011;9927;47.792;10.616;2023-12-22T13:00:35;3.90;;;3.13;;
19560;SDS011;9927;47.792;10.616;2023-12-22T13:03:03;4.30;;;3.10;;
19560;SDS011;9927;47.792;10.616;2023-12-22T13:05:33;3.40;;;3.10;;
19560;SDS011;9927;47.792;10.616;2023-12-22T13:08:11;3.10;;;3.00;;
19560;SDS011;9927;47.792;10.616;2023-12-22T13:10:40;3.40;;;3.23;;
19560;SDS011;9927;47.792;10.616;2023-12-22T13:13:08;3.23;;;3.03;;
19560;SDS011;9927;47.792;10.616;2023-12-22T13:15:39;3.10;;;3.00;;
19560;SDS011;9927;47.792;10.616;2023-12-22T13:18:07;3.10;;;3.00;;
19560;SDS011;9927;47.792;10.616;2023-12-22T13:20:35;3.30;;;3.10;;
19560;SDS011;9927;47.792;10.616;2023-12-22T13:23:03;2.90;;;2.80;;
19560;SDS011;9927;47.792;10.616;2023-12-22T13:25:37;3.50;;;3.30;;
19560;SDS011;9927;47.792;10.616;2023-12-22T13:28:08;3.30;;;3.10;;
19560;SDS011;9927;47.792;10.616;2023-12-22T13:33:05;3.03;;;2.90;;
19560;SDS011;9927;47.792;10.616;2023-12-22T13:35:33;2.90;;;2.80;;
19560;SDS011;9927;47.792;10.616;2023-12-22T13:38:07;2.77;;;2.77;;
19560;SDS011;9927;47.792;10.616;2023-12-22T13:40:37;2.50;;;2.50;;
19560;SDS011;9927;47.792;10.616;2023-12-22T13:43:05;3.00;;;2.70;;
19560;SDS011;9927;47.792;10.616;2023-12-22T13:45:34;2.90;;;2.80;;
19560;SDS011;9927;47.792;10.616;2023-12-22T13:48:02;3.00;;;2.90;;
19560;SDS011;9927;47.792;10.616;2023-12-22T13:50:30;2.70;;;2.60;;
19560;SDS011;9927;47.792;10.616;2023-12-22T13:53:05;2.63;;;2.63;;
19560;SDS011;9927;47.792;10.616;2023-12-22T13:55:37;2.80;;;2.70;;
19560;SDS011;9927;47.792;10.616;2023-12-22T13:58:06;2.50;;;2.50;;
19560;SDS011;9927;47.792;10.616;2023-12-22T14:00:33;2.70;;;2.70;;
19560;SDS011;9927;47.792;10.616;2023-12-22T14:03:01;2.87;;;2.77;;
19560;SDS011;9927;47.792;10.616;2023-12-22T14:05:29;2.70;;;2.70;;
19560;SDS011;9927;47.792;10.616;2023-12-22T14:08:01;2.73;;;2.73;;
19560;SDS011;9927;47.792;10.616;2023-12-22T14:10:32;2.80;;;2.80;;
19560;SDS011;9927;47.792;10.616;2023-12-22T14:12:59;4.70;;;4.30;;
19560;SDS011;9927;47.792;10.616;2023-12-22T14:15:27;6.03;;;5.60;;
19560;SDS011;9927;47.792;10.616;2023-12-22T14:18:10;4.97;;;4.77;;
19560;SDS011;9927;47.792;10.616;2023-12-22T14:20:38;2.80;;;2.80;;
19560;SDS011;9927;47.792;10.616;2023-12-22T14:23:05;2.80;;;2.70;;
19560;SDS011;9927;47.792;10.616;2023-12-22T14:25:36;2.60;;;2.60;;
19560;SDS011;9927;47.792;10.616;2023-12-22T14:28:03;2.70;;;2.70;;
19560;SDS011;9927;47.792;10.616;2023-12-22T14:30:30;2.83;;;2.60;;
19560;SDS011;9927;47.792;10.616;2023-12-22T14:32:58;2.50;;;2.50;;
19560;SDS011;9927;47.792;10.616;2023-12-22T14:35:25;2.40;;;2.40;;
19560;SDS011;9927;47.792;10.616;2023-12-22T14:37:52;2.50;;;2.50;;
19560;SDS011;9927;47.792;10.616;2023-12-22T14:40:20;2.70;;;2.60;;
19560;SDS011;9927;47.792;10.616;2023-12-22T14:42:48;2.83;;;2.70;;
19560;SDS011;9927;47.792;10.616;2023-12-22T14:45:15;2.40;;;2.40;;
19560;SDS011;9927;47.792;10.616;2023-12-22T14:47:42;3.00;;;2.90;;
19560;SDS011;9927;47.792;10.616;2023-12-22T14:50:09;2.60;;;2.60;;
19560;SDS011;9927;47.792;10.616;2023-12-22T14:52:37;2.90;;;2.80;;
19560;SDS011;9927;47.792;10.616;2023-12-22T14:55:04;2.97;;;2.87;;
19560;SDS011;9927;47.792;10.616;2023-12-22T14:57:32;2.50;;;2.50;;
19560;SDS011;9927;47.792;10.616;2023-12-22T15:00:00;2.50;;;2.50;;
19560;SDS011;9927;47.792;10.616;2023-12-22T15:02:27;2.80;;;2.70;;
19560;SDS011;9927;47.792;10.616;2023-12-22T15:04:55;2.60;;;2.60;;
19560;SDS011;9927;47.792;10.616;2023-12-22T15:07:26;3.00;;;2.80;;
19560;SDS011;9927;47.792;10.616;2023-12-22T15:09:54;2.80;;;2.80;;
19560;SDS011;9927;47.792;10.616;2023-12-22T15:12:21;4.40;;;3.20;;
19560;SDS011;9927;47.792;10.616;2023-12-22T15:14:48;2.50;;;2.50;;
19560;SDS011;9927;47.792;10.616;2023-12-22T15:17:16;2.73;;;2.70;;
19560;SDS011;9927;47.792;10.616;2023-12-22T15:19:44;2.70;;;2.70;;
19560;SDS011;9927;47.792;10.616;2023-12-22T15:22:11;2.67;;;2.67;;
19560;SDS011;9927;47.792;10.616;2023-12-22T15:24:42;2.60;;;2.50;;
19560;SDS011;9927;47.792;10.616;2023-12-22T15:27:12;2.60;;;2.60;;
19560;SDS011;9927;47.792;10.616;2023-12-22T15:29:39;2.40;;;2.40;;
19560;SDS011;9927;47.792;10.616;2023-12-22T15:32:07;2.50;;;2.50;;
19560;SDS011;9927;47.792;10.616;2023-12-22T15:34:34;2.63;;;2.63;;
19560;SDS011;9927;47.792;10.616;2023-12-22T15:37:02;2.50;;;2.50;;
19560;SDS011;9927;47.792;10.616;2023-12-22T15:39:29;2.70;;;2.70;;
19560;SDS011;9927;47.792;10.616;2023-12-22T15:41:57;2.60;;;2.60;;
19560;SDS011;9927;47.792;10.616;2023-12-22T15:44:25;2.70;;;2.70;;
19560;SDS011;9927;47.792;10.616;2023-12-22T15:46:52;2.80;;;2.80;;
19560;SDS011;9927;47.792;10.616;2023-12-22T15:49:20;2.60;;;2.60;;
19560;SDS011;9927;47.792;10.616;2023-12-22T15:51:47;2.60;;;2.60;;
19560;SDS011;9927;47.792;10.616;2023-12-22T15:54:17;2.70;;;2.70;;
19560;SDS011;9927;47.792;10.616;2023-12-22T15:56:44;2.63;;;2.63;;
19560;SDS011;9927;47.792;10.616;2023-12-22T15:59:11;2.60;;;2.60;;
19560;SDS011;9927;47.792;10.616;2023-12-22T16:01:42;2.50;;;2.40;;
19560;SDS011;9927;47.792;10.616;2023-12-22T16:04:11;2.50;;;2.50;;
19560;SDS011;9927;47.792;10.616;2023-12-22T16:06:38;2.43;;;2.43;;
19560;SDS011;9927;47.792;10.616;2023-12-22T16:09:05;2.50;;;2.50;;
19560;SDS011;9927;47.792;10.616;2023-12-22T16:11:33;2.50;;;2.50;;
19560;SDS011;9927;47.792;10.616;2023-12-22T16:14:00;2.60;;;2.60;;
19560;SDS011;9927;47.792;10.616;2023-12-22T16:16:27;2.50;;;2.50;;
19560;SDS011;9927;47.792;10.616;2023-12-22T16:18:54;2.57;;;2.57;;
19560;SDS011;9927;47.792;10.616;2023-12-22T16:21:22;2.50;;;2.50;;
19560;SDS011;9927;47.792;10.616;2023-12-22T16:23:49;2.43;;;2.43;;
19560;SDS011;9927;47.792;10.616;2023-12-22T16:26:20;2.30;;;2.30;;
19560;SDS011;9927;47.792;10.616;2023-12-22T16:28:50;2.50;;;2.50;;
19560;SDS011;9927;47.792;10.616;2023-12-22T16:31:18;2.50;;;2.40;;
19560;SDS011;9927;47.792;10.616;2023-12-22T16:33:49;2.50;;;2.50;;
19560;SDS011;9927;47.792;10.616;2023-12-22T16:36:16;2.50;;;2.50;;
19560;SDS011;9927;47.792;10.616;2023-12-22T16:38:43;2.40;;;2.40;;
19560;SDS011;9927;47.792;10.616;2023-12-22T16:41:11;2.30;;;2.30;;
19560;SDS011;9927;47.792;10.616;2023-12-22T16:43:38;2.43;;;2.43;;
19560;SDS011;9927;47.792;10.616;2023-12-22T16:46:06;2.37;;;2.37;;
19560;SDS011;9927;47.792;10.616;2023-12-22T16:48:34;2.40;;;2.40;;
19560;SDS011;9927;47.792;10.616;2023-12-22T16:51:02;2.40;;;2.40;;
19560;SDS011;9927;47.792;10.616;2023-12-22T16:53:29;2.47;;;2.47;;
19560;SDS011;9927;47.792;10.616;2023-12-22T16:55:57;2.53;;;2.43;;
19560;SDS011;9927;47.792;10.616;2023-12-22T16:58:24;2.50;;;2.50;;
19560;SDS011;9927;47.792;10.616;2023-12-22T17:00:51;2.60;;;2.60;;
19560;SDS011;9927;47.792;10.616;2023-12-22T17:03:38;2.40;;;2.40;;
19560;SDS011;9927;47.792;10.616;2023-12-22T17:06:06;2.40;;;2.40;;
19560;SDS011;9927;47.792;10.616;2023-12-22T17:08:35;2.50;;;2.50;;
19560;SDS011;9927;47.792;10.616;2023-12-22T17:11:02;2.60;;;2.60;;
19560;SDS011;9927;47.792;10.616;2023-12-22T17:13:30;2.77;;;2.77;;
19560;SDS011;9927;47.792;10.616;2023-12-22T17:15:57;2.60;;;2.50;;
19560;SDS011;9927;47.792;10.616;2023-12-22T17:18:24;2.40;;;2.40;;
19560;SDS011;9927;47.792;10.616;2023-12-22T17:20:52;2.40;;;2.40;;
19560;SDS011;9927;47.792;10.616;2023-12-22T17:23:31;2.53;;;2.50;;
19560;SDS011;9927;47.792;10.616;2023-12-22T17:25:58;2.60;;;2.60;;
19560;SDS011;9927;47.792;10.616;2023-12-22T17:28:25;2.40;;;2.40;;
19560;SDS011;9927;47.792;10.616;2023-12-22T17:30:53;2.50;;;2.50;;
19560;SDS011;9927;47.792;10.616;2023-12-22T17:33:20;2.60;;;2.50;;
19560;SDS011;9927;47.792;10.616;2023-12-22T17:35:48;2.40;;;2.40;;
19560;SDS011;9927;47.792;10.616;2023-12-22T17:38:15;2.40;;;2.40;;
19560;SDS011;9927;47.792;10.616;2023-12-22T17:40:42;2.40;;;2.40;;
19560;SDS011;9927;47.792;10.616;2023-12-22T17:43:10;2.27;;;2.20;;
19560;SDS011;9927;47.792;10.616;2023-12-22T17:45:37;2.40;;;2.40;;
19560;SDS011;9927;47.792;10.616;2023-12-22T17:48:04;2.50;;;2.50;;
19560;SDS011;9927;47.792;10.616;2023-12-22T17:50:32;2.40;;;2.30;;
19560;SDS011;9927;47.792;10.616;2023-12-22T17:52:59;2.40;;;2.40;;
19560;SDS011;9927;47.792;10.616;2023-12-22T17:55:27;2.40;;;2.40;;
19560;SDS011;9927;47.792;10.616;2023-12-22T17:57:54;2.40;;;2.40;;
19560;SDS011;9927;47.792;10.616;2023-12-22T18:00:22;2.50;;;2.40;;
19560;SDS011;9927;47.792;10.616;2023-12-22T18:02:50;2.50;;;2.50;;
19560;SDS011;9927;47.792;10.616;2023-12-22T18:05:17;2.50;;;2.50;;
19560;SDS011;9927;47.792;10.616;2023-12-22T18:07:46;2.40;;;2.40;;
19560;SDS011;9927;47.792;10.616;2023-12-22T18:10:13;2.43;;;2.43;;
19560;SDS011;9927;47.792;10.616;2023-12-22T18:12:42;2.50;;;2.50;;
19560;SDS011;9927;47.792;10.616;2023-12-22T18:15:11;2.40;;;2.40;;
19560;SDS011;9927;47.792;10.616;2023-12-22T18:17:39;2.60;;;2.50;;
19560;SDS011;9927;47.792;10.616;2023-12-22T18:20:06;2.50;;;2.50;;
19560;SDS011;9927;47.792;10.616;2023-12-22T18:22:35;2.60;;;2.60;;
19560;SDS011;9927;47.792;10.616;2023-12-22T18:25:02;2.27;;;2.27;;
19560;SDS011;9927;47.792;10.616;2023-12-22T18:27:30;2.50;;;2.40;;
19560;SDS011;9927;47.792;10.616;2023-12-22T18:29:57;2.50;;;2.50;;
19560;SDS011;9927;47.792;10.616;2023-12-22T18:32:24;2.33;;;2.33;;
19560;SDS011;9927;47.792;10.616;2023-12-22T18:34:51;2.30;;;2.30;;
19560;SDS011;9927;47.792;10.616;2023-12-22T18:37:19;2.20;;;2.20;;
19560;SDS011;9927;47.792;10.616;2023-12-22T18:39:46;2.33;;;2.33;;
19560;SDS011;9927;47.792;10.616;2023-12-22T18:42:13;2.20;;;2.20;;
19560;SDS011;9927;47.792;10.616;2023-12-22T18:44:41;2.30;;;2.30;;
19560;SDS011;9927;47.792;10.616;2023-12-22T18:47:08;2.30;;;2.30;;
19560;SDS011;9927;47.792;10.616;2023-12-22T18:49:35;2.20;;;2.20;;
19560;SDS011;9927;47.792;10.616;2023-12-22T18:52:03;2.20;;;2.20;;
19560;SDS011;9927;47.792;10.616;2023-12-22T18:54:32;2.20;;;2.20;;
19560;SDS011;9927;47.792;10.616;2023-12-22T18:56:59;2.57;;;2.47;;
19560;SDS011;9927;47.792;10.616;2023-12-22T18:59:26;2.30;;;2.30;;
19560;SDS011;9927;47.792;10.616;2023-12-22T19:01:53;2.40;;;2.40;;
19560;SDS011;9927;47.792;10.616;2023-12-22T19:04:41;2.20;;;2.20;;